createdAt,value
2018-04-15T00:00:54.325Z,6.60
2018-04-15T00:03:22.515Z,6.50
2018-04-15T00:05:50.622Z,6.60
2018-04-15T00:08:18.773Z,6.60
2018-04-15T00:10:46.844Z,6.70
2018-04-15T00:13:14.949Z,6.80
2018-04-15T00:15:43.043Z,6.70
2018-04-15T00:18:11.208Z,6.70
2018-04-15T00:20:39.303Z,6.70
2018-04-15T00:23:07.442Z,6.70
2018-04-15T00:25:36.327Z,6.60
2018-04-15T00:28:04.462Z,6.60
2018-04-15T00:30:32.603Z,6.60
2018-04-15T00:33:00.711Z,6.60
2018-04-15T00:35:29.580Z,6.50
2018-04-15T00:37:57.723Z,6.50
2018-04-15T00:40:25.829Z,6.50
2018-04-15T00:42:53.950Z,6.40
2018-04-15T00:45:22.836Z,6.40
2018-04-15T00:47:50.975Z,6.40
2018-04-15T00:50:19.073Z,6.40
2018-04-15T00:52:47.198Z,6.40
2018-04-15T00:55:16.060Z,6.40
2018-04-15T00:57:44.172Z,6.30
2018-04-15T01:00:12.304Z,6.30
2018-04-15T01:02:40.413Z,6.20
2018-04-15T01:05:08.523Z,6.20
2018-04-15T01:07:36.623Z,6.10
2018-04-15T01:10:04.814Z,6.10
2018-04-15T01:12:32.935Z,6.10
2018-04-15T01:15:01.052Z,6.20
2018-04-15T01:17:29.319Z,6.30
2018-04-15T01:19:57.443Z,6.50
2018-04-15T01:22:25.589Z,6.60
2018-04-15T01:24:53.705Z,6.50
2018-04-15T01:27:21.797Z,6.40
2018-04-15T01:29:49.973Z,6.30
2018-04-15T01:32:18.058Z,6.20
2018-04-15T01:34:46.135Z,6.10
2018-04-15T01:37:14.230Z,6.00
2018-04-15T01:39:42.323Z,6.00
2018-04-15T01:42:10.418Z,6.20
2018-04-15T01:44:38.543Z,6.20
2018-04-15T01:47:06.635Z,6.20
2018-04-15T01:49:34.728Z,6.10
2018-04-15T01:52:02.835Z,6.10
2018-04-15T01:54:30.975Z,6.10
2018-04-15T01:56:59.839Z,6.00
2018-04-15T01:59:29.523Z,5.90
2018-04-15T02:01:57.704Z,5.90
2018-04-15T02:04:25.781Z,5.90
2018-04-15T02:06:53.905Z,6.00
2018-04-15T02:09:22.009Z,6.20
2018-04-15T02:11:50.130Z,6.30
2018-04-15T02:14:18.240Z,6.30
2018-04-15T02:16:46.497Z,6.40
2018-04-15T02:19:15.361Z,6.60
2018-04-15T02:21:43.497Z,6.50
2018-04-15T02:24:11.611Z,6.60
2018-04-15T02:26:39.710Z,6.70
2018-04-15T02:29:07.843Z,6.80
2018-04-15T02:31:36.746Z,6.80
2018-04-15T02:34:05.617Z,6.80
2018-04-15T02:36:33.722Z,6.80
2018-04-15T02:39:01.838Z,6.80
2018-04-15T02:41:29.947Z,6.80
2018-04-15T02:43:58.065Z,6.90
2018-04-15T02:46:26.186Z,6.90
2018-04-15T02:48:54.366Z,7.00
2018-04-15T02:51:23.276Z,6.90
2018-04-15T02:53:51.367Z,6.80
2018-04-15T02:56:19.493Z,6.90
2018-04-15T02:58:47.589Z,6.90
2018-04-15T03:01:15.692Z,6.80
2018-04-15T03:03:44.570Z,6.60
2018-04-15T03:06:12.668Z,6.60
2018-04-15T03:08:40.765Z,6.70
2018-04-15T03:11:08.924Z,6.50
2018-04-15T03:13:37.044Z,6.60
2018-04-15T03:16:05.943Z,6.60
2018-04-15T03:18:34.823Z,6.60
2018-04-15T03:21:02.971Z,6.60
2018-04-15T03:23:31.074Z,6.50
2018-04-15T03:25:59.197Z,6.30
2018-04-15T03:28:28.069Z,6.30
2018-04-15T03:30:56.231Z,6.30
2018-04-15T03:33:24.318Z,6.20
2018-04-15T03:35:52.484Z,6.10
2018-04-15T03:38:20.587Z,6.10
2018-04-15T03:40:48.688Z,6.10
2018-04-15T03:43:16.779Z,6.10
2018-04-15T03:45:44.888Z,6.10
2018-04-15T03:48:12.977Z,6.10
2018-04-15T03:50:41.077Z,6.10
2018-04-15T03:53:09.983Z,6.10
2018-04-15T03:55:38.835Z,6.20
2018-04-15T03:58:06.986Z,6.20
2018-04-15T04:00:35.073Z,6.20
2018-04-15T04:03:03.187Z,6.10
2018-04-15T04:05:31.313Z,6.10
2018-04-15T04:08:00.179Z,5.90
2018-04-15T04:10:28.296Z,5.80
2018-04-15T04:12:57.183Z,5.70
2018-04-15T04:15:25.275Z,5.60
2018-04-15T04:18:05.312Z,5.60
2018-04-15T04:20:45.152Z,5.50
2018-04-15T04:23:25.226Z,5.50
2018-04-15T04:25:55.700Z,5.50
2018-04-15T04:28:23.800Z,5.40
2018-04-15T04:30:51.938Z,5.40
2018-04-15T04:33:20.040Z,5.40
2018-04-15T04:35:48.162Z,5.40
2018-04-15T04:38:16.271Z,5.30
2018-04-15T04:40:44.421Z,5.40
2018-04-15T04:43:12.528Z,5.60
2018-04-15T04:45:41.397Z,5.70
2018-04-15T04:48:09.515Z,5.70
2018-04-15T04:50:38.381Z,5.60
2018-04-15T04:53:06.491Z,5.60
2018-04-15T04:55:34.605Z,5.90
2018-04-15T04:58:02.747Z,5.80
2018-04-15T05:00:30.851Z,5.80
2018-04-15T05:02:59.753Z,5.80
2018-04-15T05:05:28.639Z,5.80
2018-04-15T05:07:56.760Z,5.80
2018-04-15T05:10:24.884Z,5.90
2018-04-15T05:12:53.016Z,6.00
2018-04-15T05:15:21.109Z,6.00
2018-04-15T05:17:50.001Z,6.10
2018-04-15T05:20:18.916Z,6.20
2018-04-15T05:22:47.780Z,6.40
2018-04-15T05:25:15.913Z,6.40
2018-04-15T05:27:44.064Z,6.60
2018-04-15T05:30:12.223Z,6.80
2018-04-15T05:32:40.342Z,7.10
2018-04-15T05:35:08.464Z,7.50
2018-04-15T05:37:36.619Z,7.90
2018-04-15T05:40:04.737Z,8.40
2018-04-15T05:42:32.859Z,8.90
2018-04-15T05:45:01.015Z,9.50
2018-04-15T05:47:29.151Z,9.80
2018-04-15T05:49:57.259Z,10.40
2018-04-15T05:52:26.137Z,11.50
2018-04-15T05:54:54.231Z,11.50
2018-04-15T05:57:22.295Z,12.00
2018-04-15T05:59:50.388Z,12.60
2018-04-15T06:02:18.504Z,12.90
2018-04-15T06:04:47.428Z,13.10
2018-04-15T06:07:15.554Z,13.10
2018-04-15T06:09:43.663Z,13.10
2018-04-15T06:12:12.522Z,13.10
2018-04-15T06:14:40.623Z,13.00
2018-04-15T06:17:08.715Z,13.10
2018-04-15T06:19:36.886Z,13.00
2018-04-15T06:22:05.011Z,13.50
2018-04-15T06:24:33.856Z,13.50
2018-04-15T06:27:01.977Z,13.50
2018-04-15T06:29:30.072Z,14.00
2018-04-15T06:31:58.172Z,14.30
2018-04-15T06:34:27.077Z,15.30
2018-04-15T06:36:55.933Z,15.90
2018-04-15T06:39:24.035Z,15.90
2018-04-15T06:41:52.175Z,16.70
2018-04-15T06:44:20.279Z,16.90
2018-04-15T06:46:48.387Z,17.20
2018-04-15T06:49:16.530Z,17.90
2018-04-15T06:51:44.628Z,18.20
2018-04-15T06:54:12.730Z,18.10
2018-04-15T06:56:40.804Z,19.20
2018-04-15T06:59:08.866Z,19.10
2018-04-15T07:01:37.038Z,19.00
2018-04-15T07:04:05.076Z,19.10
2018-04-15T07:06:33.197Z,19.10
2018-04-15T07:09:01.275Z,19.20
2018-04-15T07:11:30.181Z,19.70
2018-04-15T07:13:59.032Z,19.40
2018-04-15T07:16:27.169Z,19.40
2018-04-15T07:18:55.230Z,18.90
2018-04-15T07:21:23.378Z,18.90
2018-04-15T07:23:51.472Z,19.20
2018-04-15T07:26:19.660Z,18.90
2018-04-15T07:28:47.748Z,18.90
2018-04-15T07:31:16.357Z,19.40
2018-04-15T07:33:44.485Z,19.30
2018-04-15T07:36:13.360Z,21.20
2018-04-15T07:38:41.452Z,21.10
2018-04-15T07:41:10.297Z,19.50
2018-04-15T07:43:38.408Z,19.40
2018-04-15T07:46:06.527Z,19.00
2018-04-15T07:48:35.456Z,19.80
2018-04-15T07:51:03.571Z,19.80
2018-04-15T07:53:31.618Z,20.50
2018-04-15T07:55:59.724Z,20.20
2018-04-15T07:58:27.863Z,20.30
2018-04-15T08:00:56.003Z,20.70
2018-04-15T08:03:24.099Z,20.60
2018-04-15T08:05:52.195Z,20.00
2018-04-15T08:08:20.318Z,20.10
2018-04-15T08:10:49.147Z,20.60
2018-04-15T08:13:17.232Z,20.60
2018-04-15T08:15:45.316Z,20.80
2018-04-15T08:18:13.395Z,21.40
2018-04-15T08:20:41.480Z,21.30
2018-04-15T08:23:09.585Z,21.30
2018-04-15T08:25:37.680Z,21.50
2018-04-15T08:28:05.776Z,22.20
2018-04-15T08:30:33.875Z,21.50
2018-04-15T08:33:01.990Z,21.30
2018-04-15T08:35:30.888Z,21.70
2018-04-15T08:37:59.791Z,22.40
2018-04-15T08:40:28.693Z,22.30
2018-04-15T08:42:57.635Z,22.10
2018-04-15T08:45:25.780Z,22.10
2018-04-15T08:47:54.698Z,21.80
2018-04-15T08:50:22.805Z,21.80
2018-04-15T08:52:50.918Z,22.00
2018-04-15T08:55:19.020Z,21.80
2018-04-15T08:57:47.098Z,21.80
2018-04-15T09:00:15.210Z,22.40
2018-04-15T09:02:44.072Z,21.60
2018-04-15T09:05:12.162Z,21.60
2018-04-15T09:07:40.247Z,22.20
2018-04-15T09:10:08.332Z,22.20
2018-04-15T09:12:36.492Z,22.80
2018-04-15T09:15:04.579Z,22.00
2018-04-15T09:17:32.691Z,22.60
2018-04-15T09:20:00.761Z,22.40
2018-04-15T09:22:28.842Z,22.20
2018-04-15T09:24:56.938Z,22.30
2018-04-15T09:27:25.037Z,22.20
2018-04-15T09:29:53.127Z,23.20
2018-04-15T09:32:21.228Z,23.40
2018-04-15T09:34:49.314Z,21.60
2018-04-15T09:37:18.137Z,22.50
2018-04-15T09:39:46.248Z,22.50
2018-04-15T09:42:14.343Z,22.90
2018-04-15T09:44:42.430Z,23.40
2018-04-15T09:47:10.532Z,23.90
2018-04-15T09:49:38.640Z,25.80
2018-04-15T09:52:07.497Z,24.10
2018-04-15T09:54:35.606Z,24.00
2018-04-15T09:57:03.683Z,24.30
2018-04-15T09:59:31.747Z,24.20
2018-04-15T10:01:59.837Z,23.40
2018-04-15T10:04:27.928Z,22.80
2018-04-15T10:06:56.024Z,23.70
2018-04-15T10:09:24.111Z,23.40
2018-04-15T10:11:52.201Z,23.40
2018-04-15T10:14:20.294Z,24.20
2018-04-15T10:16:49.136Z,23.50
2018-04-15T10:19:17.241Z,23.50
2018-04-15T10:21:45.330Z,22.90
2018-04-15T10:24:13.464Z,23.10
2018-04-15T10:26:42.308Z,22.60
2018-04-15T10:29:10.420Z,22.60
2018-04-15T10:31:38.521Z,22.90
2018-04-15T10:34:07.399Z,23.20
2018-04-15T10:36:35.500Z,23.20
2018-04-15T10:39:03.588Z,23.20
2018-04-15T10:41:32.448Z,23.60
2018-04-15T10:44:00.551Z,23.60
2018-04-15T10:46:28.663Z,23.80
2018-04-15T10:48:56.727Z,23.20
2018-04-15T10:51:24.804Z,23.30
2018-04-15T10:53:53.139Z,23.90
2018-04-15T10:56:22.039Z,24.10
2018-04-15T10:58:50.879Z,24.20
2018-04-15T11:01:19.014Z,24.10
2018-04-15T11:03:47.117Z,23.80
2018-04-15T11:06:15.959Z,22.10
2018-04-15T11:08:44.083Z,22.10
2018-04-15T11:11:12.200Z,21.40
2018-04-15T11:13:40.283Z,22.20
2018-04-15T11:16:08.388Z,22.00
2018-04-15T11:18:36.451Z,21.10
2018-04-15T11:21:04.563Z,21.20
2018-04-15T11:23:32.640Z,21.00
2018-04-15T11:26:00.746Z,21.20
2018-04-15T11:28:28.848Z,21.40
2018-04-15T11:30:57.024Z,21.80
2018-04-15T11:33:25.105Z,21.80
2018-04-15T11:35:53.223Z,21.70
2018-04-15T11:38:21.322Z,22.20
2018-04-15T11:40:50.179Z,20.70
2018-04-15T11:43:18.290Z,20.70
2018-04-15T11:45:46.416Z,20.70
2018-04-15T11:48:14.510Z,20.40
2018-04-15T11:50:42.587Z,20.80
2018-04-15T11:53:10.692Z,21.30
2018-04-15T11:55:38.825Z,21.40
2018-04-15T11:58:07.708Z,21.60
2018-04-15T12:00:35.829Z,21.60
2018-04-15T12:03:03.972Z,21.60
2018-04-15T12:05:32.124Z,21.20
2018-04-15T12:08:00.222Z,21.00
2018-04-15T12:10:28.335Z,21.70
2018-04-15T12:12:56.417Z,21.50
2018-04-15T12:15:24.524Z,22.30
2018-04-15T12:17:53.376Z,22.90
2018-04-15T12:20:21.488Z,22.80
2018-04-15T12:22:49.595Z,23.20
2018-04-15T12:25:18.472Z,24.20
2018-04-15T12:27:46.567Z,24.10
2018-04-15T12:30:14.638Z,23.30
2018-04-15T12:32:42.732Z,22.80
2018-04-15T12:35:10.815Z,22.90
2018-04-15T12:37:38.930Z,22.70
2018-04-15T12:40:07.070Z,22.50
2018-04-15T12:42:35.213Z,22.80
2018-04-15T12:45:03.367Z,23.50
2018-04-15T12:47:32.222Z,23.60
2018-04-15T12:50:00.342Z,23.60
2018-04-15T12:52:28.469Z,24.40
2018-04-15T12:54:56.574Z,24.70
2018-04-15T12:57:24.668Z,23.70
2018-04-15T12:59:52.768Z,22.90
2018-04-15T13:02:20.856Z,22.90
2018-04-15T13:04:48.936Z,23.40
2018-04-15T13:07:17.032Z,23.40
2018-04-15T13:09:45.095Z,22.80
2018-04-15T13:12:13.177Z,22.90
2018-04-15T13:14:41.276Z,22.80
2018-04-15T13:17:09.369Z,23.20
2018-04-15T13:19:37.497Z,24.10
2018-04-15T13:22:05.625Z,24.10
2018-04-15T13:24:33.736Z,23.40
2018-04-15T13:27:02.632Z,23.40
2018-04-15T13:29:30.721Z,23.30
2018-04-15T13:31:58.829Z,23.90
2018-04-15T13:34:27.692Z,25.00
2018-04-15T13:36:55.788Z,24.90
2018-04-15T13:39:23.880Z,25.80
2018-04-15T13:41:52.004Z,25.30
2018-04-15T13:44:20.106Z,24.80
2018-04-15T13:46:48.213Z,25.00
2018-04-15T13:49:16.314Z,25.10
2018-04-15T13:51:44.404Z,25.40
2018-04-15T13:54:12.489Z,25.20
2018-04-15T13:56:40.558Z,26.20
2018-04-15T13:59:08.648Z,24.50
2018-04-15T14:01:36.783Z,24.90
2018-04-15T14:04:04.935Z,23.30
2018-04-15T14:06:33.028Z,22.30
2018-04-15T14:09:01.887Z,22.90
2018-04-15T14:11:30.014Z,22.90
2018-04-15T14:13:58.906Z,23.20
2018-04-15T14:16:27.049Z,23.20
2018-04-15T14:18:55.204Z,22.40
2018-04-15T14:21:23.286Z,22.10
2018-04-15T14:23:51.378Z,20.90
2018-04-15T14:26:19.460Z,21.20
2018-04-15T14:28:47.579Z,21.20
2018-04-15T14:31:15.702Z,21.20
2018-04-15T14:33:43.772Z,21.80
2018-04-15T14:36:11.891Z,22.00
2018-04-15T14:38:40.756Z,21.70
2018-04-15T14:41:08.886Z,21.70
2018-04-15T14:43:36.971Z,21.20
2018-04-15T14:46:05.064Z,20.40
2018-04-15T14:48:33.172Z,20.30
2018-04-15T14:51:01.271Z,20.10
2018-04-15T14:53:29.374Z,20.30
2018-04-15T14:55:57.488Z,20.00
2018-04-15T15:38:16.006Z,20.10
2018-04-15T15:40:44.870Z,20.40
2018-04-15T15:43:12.955Z,20.40
2018-04-15T15:45:41.062Z,20.50
2018-04-15T15:48:09.131Z,20.40
2018-04-15T15:50:37.262Z,20.50
2018-04-15T15:53:05.359Z,20.50
2018-04-15T15:55:33.469Z,20.70
2018-04-15T15:58:01.644Z,20.80
2018-04-15T16:00:29.779Z,20.50
2018-04-15T16:02:57.889Z,20.70
2018-04-15T16:05:26.746Z,21.20
2018-04-15T16:07:54.841Z,21.20
2018-04-15T16:10:22.960Z,21.60
2018-04-15T16:12:51.819Z,21.20
2018-04-15T16:15:19.920Z,21.20
2018-04-15T16:17:48.059Z,20.80
2018-04-15T16:20:16.240Z,21.10
2018-04-15T16:22:44.396Z,20.80
2018-04-15T16:25:13.896Z,20.70
2018-04-15T16:27:42.203Z,20.70
2018-04-15T16:30:10.332Z,20.70
2018-04-15T16:32:38.463Z,20.80
2018-04-15T16:35:07.319Z,20.90
2018-04-15T16:37:35.429Z,20.90
2018-04-15T16:40:03.540Z,20.80
2018-04-15T16:42:31.729Z,20.60
2018-04-15T16:45:00.590Z,20.80
2018-04-15T16:47:28.736Z,20.80
2018-04-15T16:49:56.855Z,20.60
2018-04-15T16:52:24.966Z,20.80
2018-04-15T16:54:53.064Z,20.80
2018-04-15T16:57:21.937Z,20.60
2018-04-15T16:59:50.079Z,20.60
2018-04-15T17:02:18.231Z,20.60
2018-04-15T17:04:46.379Z,20.50
2018-04-15T17:07:14.528Z,20.30
2018-04-15T17:09:43.395Z,20.10
2018-04-15T17:12:11.497Z,20.10
2018-04-15T17:14:39.575Z,20.10
2018-04-15T17:17:07.634Z,20.00
2018-04-15T17:19:35.742Z,19.80
2018-04-15T17:22:03.859Z,19.70
2018-04-15T17:24:32.701Z,19.30
2018-04-15T17:27:00.783Z,19.20
2018-04-15T17:29:28.886Z,19.10
2018-04-15T17:31:56.981Z,19.10
2018-04-15T17:34:25.069Z,19.00
2018-04-15T17:36:53.952Z,19.30
2018-04-15T17:39:22.048Z,19.30
2018-04-15T17:41:50.157Z,19.20
2018-04-15T17:44:18.243Z,19.10
2018-04-15T17:46:47.126Z,19.00
2018-04-15T17:49:15.245Z,18.90
2018-04-15T17:51:44.094Z,18.70
2018-04-15T17:54:12.194Z,18.60
2018-04-15T17:56:40.297Z,18.60
2018-04-15T17:59:09.179Z,18.40
2018-04-15T18:01:37.310Z,18.40
2018-04-15T18:04:06.153Z,18.60
2018-04-15T18:06:34.286Z,18.60
2018-04-15T18:09:03.182Z,18.50
2018-04-15T18:11:32.015Z,18.90
2018-04-15T18:14:00.186Z,18.90
2018-04-15T18:16:28.221Z,18.50
2018-04-15T18:18:56.344Z,17.90
2018-04-15T18:21:25.248Z,17.20
2018-04-15T18:23:54.197Z,17.10
2018-04-15T18:26:22.274Z,17.00
2018-04-15T18:28:50.366Z,16.90
2018-04-15T18:31:18.467Z,16.70
2018-04-15T18:33:46.573Z,16.60
2018-04-15T18:36:14.694Z,16.50
2018-04-15T18:38:42.796Z,16.40
2018-04-15T18:41:11.028Z,16.40
2018-04-15T18:43:39.928Z,16.20
2018-04-15T18:46:08.015Z,16.20
2018-04-15T18:48:36.130Z,16.10
2018-04-15T18:51:05.000Z,16.00
2018-04-15T18:53:33.070Z,16.00
2018-04-15T18:56:01.157Z,16.00
2018-04-15T18:58:29.374Z,15.90
2018-04-15T19:00:58.216Z,15.80
2018-04-15T19:03:26.332Z,15.70
2018-04-15T19:05:54.406Z,15.70
2018-04-15T19:08:22.501Z,15.70
2018-04-15T19:10:50.622Z,15.70
2018-04-15T19:13:19.508Z,15.50
2018-04-15T19:15:48.397Z,15.50
2018-04-15T19:18:16.550Z,15.50
2018-04-15T19:20:44.638Z,15.50
2018-04-15T19:23:12.772Z,15.50
2018-04-15T19:25:40.912Z,15.50
2018-04-15T19:28:09.801Z,15.40
2018-04-15T19:30:38.771Z,15.40
2018-04-15T19:33:07.626Z,15.30
2018-04-15T19:35:35.718Z,15.30
2018-04-15T19:38:03.832Z,15.20
2018-04-15T19:40:31.957Z,15.10
2018-04-15T19:43:00.039Z,15.10
2018-04-15T19:45:28.186Z,15.00
2018-04-15T19:47:56.289Z,15.00
2018-04-15T19:50:25.153Z,14.80
2018-04-15T19:52:53.263Z,14.90
2018-04-15T19:55:21.374Z,14.90
2018-04-15T19:57:50.238Z,14.80
2018-04-15T20:00:18.395Z,14.80
2018-04-15T20:02:46.488Z,14.80
2018-04-15T20:05:14.550Z,14.80
2018-04-15T20:07:42.669Z,14.70
2018-04-15T20:10:10.748Z,14.70
2018-04-15T20:12:39.666Z,14.60
2018-04-15T20:15:07.752Z,14.50
2018-04-15T20:17:35.861Z,14.50
2018-04-15T20:20:04.721Z,14.50
2018-04-15T20:22:32.847Z,14.50
2018-04-15T20:25:01.700Z,14.50
2018-04-15T20:27:29.798Z,14.50
2018-04-15T20:29:57.944Z,14.50
2018-04-15T20:32:26.029Z,14.40
2018-04-15T20:34:54.879Z,14.40
2018-04-15T20:37:22.978Z,14.40
2018-04-15T20:39:51.079Z,14.40
2018-04-15T20:42:19.184Z,14.40
2018-04-15T20:44:47.319Z,14.40
2018-04-15T20:47:15.431Z,14.40
2018-04-15T20:49:44.321Z,14.40
2018-04-15T20:52:12.451Z,14.30
2018-04-15T20:54:40.544Z,14.30
2018-04-15T20:57:08.629Z,14.20
2018-04-15T20:59:36.790Z,14.30
2018-04-15T21:02:05.646Z,14.20
2018-04-15T21:04:33.764Z,14.20
2018-04-15T21:07:02.651Z,14.10
2018-04-15T21:09:30.776Z,14.10
2018-04-15T21:11:58.961Z,14.00
2018-04-15T21:14:27.163Z,14.10
2018-04-15T21:16:56.261Z,14.10
2018-04-15T21:19:24.356Z,14.10
2018-04-15T21:21:52.436Z,14.10
2018-04-15T21:24:20.543Z,14.10
2018-04-15T21:26:48.644Z,14.10
2018-04-15T21:29:16.705Z,14.10
2018-04-15T21:31:44.863Z,14.10
2018-04-15T21:34:12.992Z,14.10
2018-04-15T21:36:41.099Z,14.10
2018-04-15T21:39:09.179Z,14.00
2018-04-15T21:41:37.324Z,14.00
2018-04-15T21:44:05.393Z,14.00
2018-04-15T21:46:33.542Z,14.00
2018-04-15T21:49:01.742Z,14.00
2018-04-15T21:51:29.806Z,14.00
2018-04-15T21:53:57.917Z,14.10
2018-04-15T21:56:26.796Z,14.30
2018-04-15T21:58:54.899Z,14.20
2018-04-15T22:01:23.761Z,14.40
2018-04-15T22:03:51.916Z,14.40
2018-04-15T22:06:20.033Z,14.30
2018-04-15T22:08:48.151Z,14.30
2018-04-15T22:11:16.228Z,14.40
2018-04-15T22:13:44.300Z,14.30
2018-04-15T22:16:12.420Z,14.30
2018-04-15T22:18:41.293Z,14.30
2018-04-15T22:21:09.470Z,14.30
2018-04-15T22:23:37.612Z,14.30
2018-04-15T22:26:05.745Z,14.40
2018-04-15T22:28:33.849Z,14.40
2018-04-15T22:31:01.988Z,14.50
2018-04-15T22:33:30.104Z,14.50
2018-04-15T22:35:58.200Z,14.40
2018-04-15T22:38:26.316Z,14.40
2018-04-15T22:40:54.454Z,14.40
2018-04-15T22:43:22.519Z,14.40
2018-04-15T22:45:50.640Z,14.40
2018-04-15T22:48:18.731Z,14.40
2018-04-15T22:50:46.832Z,14.30
2018-04-15T22:53:15.689Z,14.30
2018-04-15T22:55:43.796Z,14.30
2018-04-15T22:58:11.924Z,14.20
2018-04-15T23:00:40.043Z,14.20
2018-04-15T23:03:08.176Z,14.20
2018-04-15T23:05:37.036Z,14.20
2018-04-15T23:08:05.128Z,14.20
2018-04-15T23:10:33.247Z,14.20
2018-04-15T23:13:02.099Z,14.10
2018-04-15T23:15:30.207Z,14.10
2018-04-15T23:17:58.297Z,14.10
2018-04-15T23:20:27.403Z,14.10
2018-04-15T23:22:55.490Z,14.10
2018-04-15T23:25:23.601Z,14.10
2018-04-15T23:27:52.491Z,14.00
2018-04-15T23:30:22.387Z,14.10
2018-04-15T23:32:50.538Z,14.00
2018-04-15T23:35:18.665Z,14.10
2018-04-15T23:37:47.560Z,14.10
2018-04-15T23:40:15.664Z,14.00
2018-04-15T23:42:44.548Z,14.00
2018-04-15T23:45:12.653Z,14.00
2018-04-15T23:47:40.729Z,14.00
2018-04-15T23:50:08.869Z,14.00
2018-04-15T23:52:36.984Z,14.00
2018-04-15T23:55:05.071Z,14.00
2018-04-15T23:57:33.228Z,13.90
